Time;durP1;ratioP1;P1;durP2;ratioP2;P2;SDS_P1;SDS_P2;PMS_P1;PMS_P2;Temp;Humidity;BMP_temperature;BMP_pressure;BME280_temperature;BME280_humidity;BME280_pressure;Samples;Min_cycle;Max_cycle;Signal;HPM_P1;HPM_P2
2023/06/11 00:00:59;;;;;;;10.13;6.70;;;;;;;21.66;55.72;101279.97;5120916;29;20029;-71
2023/06/11 00:03:33;;;;;;;8.15;6.82;;;;;;;21.58;56.39;101270.72;5122999;29;20123;-71
2023/06/11 00:06:05;;;;;;;8.48;6.45;;;;;;;21.60;56.91;101263.53;5122464;29;20340;-70
2023/06/11 00:08:36;;;;;;;9.63;6.40;;;;;;;21.39;57.64;101273.41;5122616;29;20044;-71
2023/06/11 00:11:08;;;;;;;9.68;6.95;;;;;;;21.46;56.96;101270.38;5122366;29;20516;-71
2023/06/11 00:13:39;;;;;;;11.00;6.90;;;;;;;21.52;57.06;101265.72;5122529;29;20040;-71
2023/06/11 00:16:12;;;;;;;11.23;6.97;;;;;;;21.38;58.31;101274.34;5122581;29;20488;-71
2023/06/11 00:18:45;;;;;;;7.95;6.38;;;;;;;21.21;58.22;101262.78;5122397;29;20039;-71
2023/06/11 00:21:16;;;;;;;7.15;5.95;;;;;;;21.28;58.38;101268.63;5122024;29;20032;-71
2023/06/11 00:23:48;;;;;;;8.63;6.65;;;;;;;21.17;58.59;101263.00;5122344;29;20039;-71
2023/06/11 00:26:19;;;;;;;10.37;7.07;;;;;;;21.00;58.95;101263.84;5122356;29;20476;-71
2023/06/11 00:28:51;;;;;;;7.07;6.20;;;;;;;20.93;59.52;101256.19;5122075;29;20095;-71
2023/06/11 00:31:22;;;;;;;13.70;7.23;;;;;;;21.08;59.39;101254.59;5122286;29;20091;-71
2023/06/11 00:33:53;;;;;;;10.03;6.60;;;;;;;21.02;60.24;101259.34;5120929;29;20043;-71
2023/06/11 00:36:26;;;;;;;10.97;6.83;;;;;;;20.76;60.40;101254.34;5122209;29;20040;-71
2023/06/11 00:38:58;;;;;;;10.02;6.80;;;;;;;20.73;60.68;101266.91;5121254;29;20384;-71
2023/06/11 00:41:30;;;;;;;11.53;7.30;;;;;;;20.74;61.32;101258.88;5121087;29;20033;-71
2023/06/11 00:44:02;;;;;;;10.75;6.72;;;;;;;20.69;61.13;101260.91;5121743;29;20044;-71
2023/06/11 00:46:37;;;;;;;9.85;7.13;;;;;;;20.65;61.05;101259.31;5122011;29;20445;-71
2023/06/11 00:49:10;;;;;;;7.75;6.95;;;;;;;20.65;61.74;101253.16;5122181;29;20040;-71
2023/06/11 00:51:43;;;;;;;13.10;7.70;;;;;;;20.44;61.87;101255.84;5122043;29;20044;-71
2023/06/11 00:54:16;;;;;;;12.48;7.43;;;;;;;20.46;63.07;101246.03;5120568;29;20055;-72
2023/06/11 00:56:47;;;;;;;9.95;6.93;;;;;;;20.48;62.61;101259.22;5104988;29;20036;-71
2023/06/11 00:59:19;;;;;;;8.17;6.97;;;;;;;20.52;62.58;101255.50;5122257;29;20035;-71
2023/06/11 01:02:17;;;;;;;9.77;7.20;;;;;;;20.46;62.20;101261.94;5121728;29;20268;-71
2023/06/11 01:04:53;;;;;;;9.73;7.38;;;;;;;20.37;63.39;101270.31;5121704;29;20058;-71
2023/06/11 01:07:32;;;;;;;12.65;8.60;;;;;;;20.28;63.93;101260.16;5121254;29;20044;-71
2023/06/11 01:10:03;;;;;;;8.27;7.20;;;;;;;20.21;63.66;101249.00;5120630;29;20024;-71
2023/06/11 01:12:35;;;;;;;11.10;7.32;;;;;;;20.11;64.32;101258.25;5121438;29;20043;-71
2023/06/11 01:15:13;;;;;;;9.57;7.60;;;;;;;20.02;64.57;101263.03;5120722;29;20048;-71
2023/06/11 01:18:07;;;;;;;13.25;7.15;;;;;;;19.97;65.01;101265.03;5120295;29;20036;-71
2023/06/11 01:20:49;;;;;;;9.20;7.70;;;;;;;20.08;65.05;101263.72;5121402;29;20159;-71
2023/06/11 01:23:31;;;;;;;9.93;7.40;;;;;;;19.97;65.90;101259.75;5120672;29;20110;-71
2023/06/11 01:26:34;;;;;;;10.80;7.13;;;;;;;20.00;64.25;101262.25;5121162;29;20040;-71
2023/06/11 01:29:09;;;;;;;9.32;7.63;;;;;;;19.83;66.07;101263.00;5095197;29;20043;-71
2023/06/11 01:31:41;;;;;;;14.05;8.25;;;;;;;19.97;66.26;101264.19;5121117;29;20448;-71
2023/06/11 01:34:13;;;;;;;8.82;7.05;;;;;;;19.90;66.25;101263.59;5121146;29;20034;-70
2023/06/11 01:36:44;;;;;;;8.93;8.02;;;;;;;19.68;66.69;101268.94;5121124;29;20092;-71
2023/06/11 01:39:16;;;;;;;10.27;8.73;;;;;;;19.71;67.06;101266.16;5121100;29;20043;-71
2023/06/11 01:41:47;;;;;;;12.20;7.97;;;;;;;19.70;67.93;101260.94;5121064;29;20047;-71
2023/06/11 01:44:20;;;;;;;9.40;7.63;;;;;;;19.77;68.31;101273.88;5120993;29;20052;-70
2023/06/11 01:46:51;;;;;;;12.15;8.00;;;;;;;19.61;67.81;101268.34;5120962;29;20040;-70
2023/06/11 01:49:22;;;;;;;8.43;7.53;;;;;;;19.44;68.31;101266.41;5121036;29;20036;-70
2023/06/11 01:51:54;;;;;;;9.63;8.63;;;;;;;19.54;68.36;101263.38;5120082;29;20060;-70
2023/06/11 01:54:26;;;;;;;12.82;8.80;;;;;;;19.61;68.32;101267.47;5119812;29;20043;-70
2023/06/11 01:56:57;;;;;;;9.67;7.90;;;;;;;19.49;67.78;101269.72;5120593;29;20041;-70
2023/06/11 01:59:28;;;;;;;8.83;7.40;;;;;;;19.67;68.91;101270.72;5121053;29;20040;-70
2023/06/11 02:02:00;;;;;;;9.70;8.20;;;;;;;19.52;68.33;101266.09;5120717;29;20543;-70
2023/06/11 02:04:31;;;;;;;9.17;8.03;;;;;;;19.47;68.50;101268.91;5120506;29;20040;-70
2023/06/11 02:07:03;;;;;;;11.47;8.67;;;;;;;19.47;69.50;101271.56;5120934;29;20433;-70
2023/06/11 02:09:34;;;;;;;11.90;7.77;;;;;;;19.34;69.65;101267.72;5119156;29;20610;-70
2023/06/11 02:12:06;;;;;;;14.33;8.63;;;;;;;19.42;69.11;101278.84;5120793;29;20264;-70
2023/06/11 02:14:38;;;;;;;10.60;8.93;;;;;;;19.26;69.88;101273.31;5120564;29;20589;-70
2023/06/11 02:17:09;;;;;;;10.57;8.30;;;;;;;19.24;69.86;101266.38;5120778;29;20092;-70
2023/06/11 02:19:41;;;;;;;9.70;8.65;;;;;;;19.24;69.99;101271.66;5120398;29;20564;-70
2023/06/11 02:22:12;;;;;;;11.43;8.13;;;;;;;19.22;69.84;101268.22;5120688;29;20032;-71
2023/06/11 02:24:44;;;;;;;9.23;8.33;;;;;;;19.10;70.86;101267.81;5123494;29;20036;-70
2023/06/11 02:27:15;;;;;;;11.13;9.57;;;;;;;19.03;71.39;101263.72;5125173;29;20040;-71
2023/06/11 02:29:46;;;;;;;12.27;8.87;;;;;;;19.05;71.25;101274.22;5124117;29;20084;-70
2023/06/11 02:32:18;;;;;;;11.80;9.00;;;;;;;18.90;71.25;101263.34;5124219;29;20075;-70
2023/06/11 02:34:49;;;;;;;16.00;9.87;;;;;;;19.00;71.84;101276.16;5124094;29;20084;-70
2023/06/11 02:37:21;;;;;;;9.63;8.73;;;;;;;18.93;71.70;101268.50;5123029;29;20043;-71
2023/06/11 02:39:52;;;;;;;12.33;9.40;;;;;;;18.91;71.29;101266.84;5124073;29;20073;-70
2023/06/11 02:42:24;;;;;;;11.10;8.67;;;;;;;18.78;72.26;101267.28;5123885;29;20123;-71
2023/06/11 02:44:55;;;;;;;13.07;9.63;;;;;;;18.69;71.98;101266.78;5124554;29;20032;-71
2023/06/11 02:47:26;;;;;;;15.17;9.37;;;;;;;18.73;72.38;101263.97;5124774;29;20039;-70
2023/06/11 02:49:58;;;;;;;16.07;9.90;;;;;;;18.73;72.21;101276.31;5122948;29;20088;-71
2023/06/11 02:52:29;;;;;;;10.90;9.33;;;;;;;18.57;73.14;101270.78;5124043;29;20037;-71
2023/06/11 02:55:00;;;;;;;12.37;8.67;;;;;;;18.68;73.61;101273.84;5123954;29;20363;-70
2023/06/11 02:57:32;;;;;;;11.83;10.57;;;;;;;18.51;73.60;101274.50;5124330;29;20043;-71
2023/06/11 03:00:05;;;;;;;12.10;9.83;;;;;;;18.54;74.28;101281.44;5123792;29;20040;-71
2023/06/11 03:02:37;;;;;;;10.48;9.48;;;;;;;18.57;74.67;101281.31;5124478;29;20032;-71
2023/06/11 03:05:08;;;;;;;11.47;10.30;;;;;;;18.43;74.64;101275.72;5124237;29;20036;-70
2023/06/11 03:07:40;;;;;;;10.87;9.70;;;;;;;18.37;74.85;101279.44;5124287;29;20052;-70
2023/06/11 03:10:11;;;;;;;13.57;9.57;;;;;;;18.33;74.89;101269.94;5122592;29;20044;-70
2023/06/11 03:12:42;;;;;;;12.83;11.43;;;;;;;18.26;75.54;101271.94;5123848;29;20032;-71
2023/06/11 03:15:14;;;;;;;11.37;10.27;;;;;;;18.20;75.70;101270.38;5124179;29;20040;-71
2023/06/11 03:17:45;;;;;;;11.83;10.40;;;;;;;18.14;75.82;101280.28;5123915;29;20040;-70
2023/06/11 03:20:16;;;;;;;10.87;9.50;;;;;;;18.10;76.17;101283.97;5123320;29;20111;-70
2023/06/11 03:22:48;;;;;;;12.03;10.90;;;;;;;17.99;76.55;101292.25;5123116;29;20091;-70
2023/06/11 03:25:19;;;;;;;11.80;10.50;;;;;;;17.96;77.01;101277.41;5122521;29;20392;-70
2023/06/11 03:27:50;;;;;;;12.37;10.27;;;;;;;17.83;77.17;101270.81;5123252;29;20042;-71
2023/06/11 03:30:22;;;;;;;12.70;11.37;;;;;;;17.91;77.34;101284.63;5123041;29;20032;-70
2023/06/11 03:32:53;;;;;;;15.33;11.83;;;;;;;17.86;77.71;101282.09;5123610;29;20076;-71
2023/06/11 03:35:24;;;;;;;13.17;11.87;;;;;;;17.75;77.79;101275.50;5122255;29;20032;-70
2023/06/11 03:37:56;;;;;;;13.23;10.80;;;;;;;17.90;78.73;101282.03;5123038;29;20036;-71
2023/06/11 03:40:28;;;;;;;14.10;11.63;;;;;;;17.92;78.69;101290.75;5123711;29;20025;-71
2023/06/11 03:42:59;;;;;;;14.00;11.90;;;;;;;17.91;78.40;101283.78;5122991;29;20036;-70
2023/06/11 03:45:31;;;;;;;15.17;10.83;;;;;;;18.04;78.34;101287.69;5123677;29;20042;-71
2023/06/11 03:48:04;;;;;;;19.20;10.90;;;;;;;17.87;78.17;101285.63;5123356;29;20029;-70
2023/06/11 03:50:35;;;;;;;12.88;11.38;;;;;;;17.82;78.13;101285.78;5106578;29;20039;-70
2023/06/11 03:53:06;;;;;;;13.27;11.10;;;;;;;18.03;79.01;101289.47;5122901;29;20333;-71
2023/06/11 03:55:38;;;;;;;12.20;10.87;;;;;;;17.91;79.67;101292.53;5123098;29;20040;-70
2023/06/11 03:58:09;;;;;;;14.77;11.23;;;;;;;17.87;78.51;101288.28;5121370;29;20039;-70
2023/06/11 04:00:40;;;;;;;14.17;11.33;;;;;;;17.87;78.84;101293.53;5121718;29;20036;-70
2023/06/11 04:03:12;;;;;;;11.53;10.40;;;;;;;17.86;79.32;101286.53;5122342;29;20036;-70
2023/06/11 04:05:43;;;;;;;12.93;11.43;;;;;;;17.90;79.89;101292.59;5122536;29;20039;-70
2023/06/11 04:08:15;;;;;;;17.90;12.83;;;;;;;17.85;79.13;101298.88;5122573;29;20048;-70
2023/06/11 04:10:46;;;;;;;14.00;11.87;;;;;;;17.87;79.17;101296.19;5122269;29;20032;-70
2023/06/11 04:13:18;;;;;;;17.53;11.47;;;;;;;17.81;79.40;101301.66;5121927;29;20110;-70
2023/06/11 04:15:49;;;;;;;15.07;11.53;;;;;;;17.91;80.21;101291.69;5122173;29;20036;-70
2023/06/11 04:18:20;;;;;;;14.50;11.93;;;;;;;17.84;79.38;101289.22;5121276;29;20028;-71
2023/06/11 04:20:52;;;;;;;17.17;12.47;;;;;;;17.91;80.52;101296.97;5122142;29;20476;-71
2023/06/11 04:23:23;;;;;;;16.50;12.00;;;;;;;17.89;79.92;101298.75;5121739;29;20039;-71
2023/06/11 04:25:56;;;;;;;16.60;11.67;;;;;;;17.91;80.21;101307.50;5122065;29;20372;-71
2023/06/11 04:28:28;;;;;;;14.85;12.55;;;;;;;18.01;81.00;101296.56;5122158;29;20044;-71
2023/06/11 04:30:59;;;;;;;13.73;12.30;;;;;;;17.86;80.63;101303.22;5121356;29;20527;-71
2023/06/11 04:33:36;;;;;;;13.63;12.23;;;;;;;18.00;80.35;101305.41;5121991;29;20095;-71
2023/06/11 04:36:08;;;;;;;18.35;12.57;;;;;;;17.99;80.72;101306.31;5121934;29;20044;-71
2023/06/11 04:38:44;;;;;;;13.93;12.52;;;;;;;18.03;80.37;101302.66;5121757;29;20489;-71
2023/06/11 04:41:16;;;;;;;14.85;12.65;;;;;;;18.03;80.72;101304.41;5122369;29;20072;-71
2023/06/11 04:43:47;;;;;;;16.80;12.70;;;;;;;18.06;80.61;101304.31;5121071;29;20122;-71
2023/06/11 04:46:18;;;;;;;14.33;12.93;;;;;;;18.10;80.88;101305.09;5121582;29;20032;-71
2023/06/11 04:48:50;;;;;;;14.73;13.23;;;;;;;18.14;80.11;101298.75;5120717;29;20603;-71
2023/06/11 04:51:23;;;;;;;15.27;13.63;;;;;;;18.19;80.50;101302.97;5121622;29;20123;-71
2023/06/11 04:53:57;;;;;;;17.00;13.10;;;;;;;18.26;80.19;101298.31;5120529;29;20032;-71
2023/06/11 04:56:28;;;;;;;15.82;13.82;;;;;;;18.22;80.77;101302.88;5120355;29;20039;-71
2023/06/11 04:59:03;;;;;;;13.10;11.77;;;;;;;18.42;80.32;101306.53;5121784;29;20040;-71
2023/06/11 05:01:37;;;;;;;14.90;13.38;;;;;;;18.42;80.59;101306.53;5121484;29;20037;-71
2023/06/11 05:04:08;;;;;;;15.48;13.02;;;;;;;18.60;79.80;101307.63;5121040;29;20036;-71
2023/06/11 05:06:45;;;;;;;17.07;14.27;;;;;;;18.56;79.96;101303.34;5121335;29;20538;-71
2023/06/11 05:09:16;;;;;;;15.60;13.85;;;;;;;18.67;79.29;101310.88;5121834;29;20054;-71
2023/06/11 05:11:47;;;;;;;20.47;14.27;;;;;;;18.75;79.96;101314.09;5121328;29;20048;-71
2023/06/11 05:14:19;;;;;;;14.13;12.73;;;;;;;18.89;78.90;101308.31;5121553;29;20039;-71
2023/06/11 05:16:50;;;;;;;14.43;12.93;;;;;;;18.92;78.65;101310.84;5121294;29;20040;-71
2023/06/11 05:19:22;;;;;;;15.33;13.63;;;;;;;19.01;77.64;101315.72;5121195;29;20183;-71
2023/06/11 05:21:53;;;;;;;15.33;13.93;;;;;;;19.19;77.07;101321.22;5121250;29;20539;-71
2023/06/11 05:24:28;;;;;;;17.00;14.13;;;;;;;19.22;76.37;101318.44;5121300;29;20047;-71
2023/06/11 05:27:00;;;;;;;15.40;13.82;;;;;;;19.26;75.64;101310.31;5120997;29;20083;-71
2023/06/11 05:29:32;;;;;;;22.33;14.93;;;;;;;19.44;75.08;101307.84;5121770;29;20032;-71
2023/06/11 05:32:05;;;;;;;15.57;14.00;;;;;;;19.54;75.03;101316.25;5120754;29;20036;-71
2023/06/11 05:34:39;;;;;;;15.65;13.95;;;;;;;19.62;74.13;101322.09;5120922;29;20325;-71
2023/06/11 05:37:10;;;;;;;18.77;14.85;;;;;;;19.71;74.25;101319.06;5121450;29;20028;-71
2023/06/11 05:39:42;;;;;;;17.83;14.03;;;;;;;19.82;72.54;101327.44;5120574;29;20054;-70
2023/06/11 05:42:13;;;;;;;13.57;12.23;;;;;;;19.96;72.49;101324.16;5120627;29;20480;-71
2023/06/11 05:44:44;;;;;;;15.27;11.83;;;;;;;19.98;72.03;101319.69;5119307;29;20032;-71
2023/06/11 05:47:16;;;;;;;13.37;11.43;;;;;;;20.07;72.00;101325.50;5119989;29;20043;-71
2023/06/11 05:49:47;;;;;;;12.87;11.03;;;;;;;20.17;71.23;101316.22;5120486;29;20135;-70
2023/06/11 05:52:18;;;;;;;12.73;11.43;;;;;;;20.26;70.98;101317.59;5120709;29;20043;-71
2023/06/11 05:54:50;;;;;;;12.13;10.90;;;;;;;20.35;70.18;101317.16;5120382;29;20396;-71
2023/06/11 05:57:23;;;;;;;12.53;10.37;;;;;;;20.47;68.85;101315.78;5121216;29;20118;-71
2023/06/11 05:59:54;;;;;;;13.77;10.55;;;;;;;20.55;70.92;101317.13;5120312;29;20417;-71
2023/06/11 06:02:26;;;;;;;15.03;10.10;;;;;;;20.69;68.39;101315.69;5120662;29;20069;-71
2023/06/11 06:04:57;;;;;;;10.47;9.47;;;;;;;20.77;68.14;101324.97;5121000;29;20048;-71
2023/06/11 06:07:28;;;;;;;11.13;8.87;;;;;;;20.83;68.02;101312.34;5120372;29;20056;-71
2023/06/11 06:10:01;;;;;;;12.43;8.97;;;;;;;20.94;68.24;101326.81;5120507;29;20080;-71
2023/06/11 06:12:32;;;;;;;13.50;8.95;;;;;;;21.03;67.80;101325.53;5120714;29;20066;-71
2023/06/11 06:15:04;;;;;;;10.60;8.23;;;;;;;21.12;67.68;101318.91;5120460;29;20062;-71
2023/06/11 06:17:35;;;;;;;10.23;8.75;;;;;;;21.23;65.89;101321.03;5120141;29;20028;-71
2023/06/11 06:20:08;;;;;;;14.17;8.10;;;;;;;21.30;65.41;101323.31;5120542;29;20047;-71
2023/06/11 06:22:41;;;;;;;9.68;8.30;;;;;;;21.40;65.38;101329.03;5120007;29;20028;-71
2023/06/11 06:25:15;;;;;;;9.30;7.88;;;;;;;21.52;64.85;101332.88;5120423;29;20035;-73
2023/06/11 06:27:46;;;;;;;12.48;9.05;;;;;;;21.63;63.73;101332.34;5120697;29;20131;-73
2023/06/11 06:30:18;;;;;;;9.63;8.57;;;;;;;21.66;65.44;101329.53;5120462;29;20119;-72
2023/06/11 06:32:49;;;;;;;8.57;7.67;;;;;;;21.79;63.63;101329.78;5120522;29;20064;-73
2023/06/11 06:35:21;;;;;;;10.20;8.57;;;;;;;21.93;64.23;101344.97;5118666;29;20444;-71
2023/06/11 06:37:52;;;;;;;8.37;7.57;;;;;;;21.99;62.92;101342.00;5120233;29;20384;-71
2023/06/11 06:40:24;;;;;;;10.17;7.70;;;;;;;22.08;62.39;101336.22;5119311;29;20369;-71
2023/06/11 06:42:55;;;;;;;11.00;7.28;;;;;;;22.16;62.10;101344.63;5120199;29;20351;-71
2023/06/11 06:45:27;;;;;;;7.70;6.80;;;;;;;22.25;61.64;101343.31;5120234;29;20047;-72
2023/06/11 06:47:58;;;;;;;11.20;7.67;;;;;;;22.36;61.71;101343.63;5120181;29;20028;-72
2023/06/11 06:50:29;;;;;;;10.80;7.23;;;;;;;22.47;60.79;101348.34;5120155;29;20043;-72
2023/06/11 06:53:01;;;;;;;11.30;7.97;;;;;;;22.52;60.98;101346.31;5119851;29;20032;-72
2023/06/11 06:55:32;;;;;;;7.60;6.87;;;;;;;22.68;61.14;101341.00;5120398;29;20028;-72
2023/06/11 06:58:03;;;;;;;8.27;7.47;;;;;;;22.82;60.87;101342.06;5118741;29;20075;-72
2023/06/11 07:00:35;;;;;;;10.27;7.23;;;;;;;22.93;60.38;101334.34;5120339;29;20112;-72
2023/06/11 07:03:06;;;;;;;11.40;7.30;;;;;;;23.01;60.60;101332.09;5120011;29;20484;-72
2023/06/11 07:05:38;;;;;;;11.35;7.30;;;;;;;23.16;59.20;101325.09;5120485;29;20036;-72
2023/06/11 07:08:12;;;;;;;9.07;7.47;;;;;;;23.24;58.85;101329.97;5119745;29;20150;-72
2023/06/11 07:10:51;;;;;;;10.18;6.78;;;;;;;23.34;58.62;101335.63;5121932;29;20540;-72
2023/06/11 07:13:22;;;;;;;9.88;7.20;;;;;;;23.39;57.74;101342.38;5123414;29;20032;-71
2023/06/11 07:15:54;;;;;;;9.88;7.30;;;;;;;23.55;58.09;101341.50;5123809;29;20040;-72
2023/06/11 07:18:27;;;;;;;8.70;7.13;;;;;;;23.65;57.65;101338.19;5122022;29;20126;-72
2023/06/11 07:20:59;;;;;;;12.13;7.10;;;;;;;23.69;56.83;101346.00;5123100;29;20091;-72
2023/06/11 07:23:30;;;;;;;9.52;7.05;;;;;;;23.77;56.99;101341.94;5123044;29;20028;-72
2023/06/11 07:26:03;;;;;;;11.87;7.27;;;;;;;23.83;57.39;101336.28;5123179;29;20080;-73
2023/06/11 07:28:34;;;;;;;7.80;7.00;;;;;;;23.99;55.87;101335.38;5122992;29;20459;-72
2023/06/11 07:31:06;;;;;;;7.93;7.03;;;;;;;24.07;56.41;101333.09;5123424;29;20040;-72
2023/06/11 07:33:38;;;;;;;12.83;7.10;;;;;;;24.13;56.06;101342.50;5123353;29;20039;-73
2023/06/11 07:36:10;;;;;;;13.63;7.20;;;;;;;24.20;54.93;101349.19;5122790;29;20284;-72
2023/06/11 07:38:42;;;;;;;9.03;7.10;;;;;;;24.43;56.60;101344.22;5121434;29;20032;-73
2023/06/11 07:41:14;;;;;;;9.02;7.00;;;;;;;24.57;54.97;101341.59;5123079;29;20412;-70
2023/06/11 07:43:45;;;;;;;14.00;7.47;;;;;;;24.55;53.60;101344.31;5122346;29;20044;-72
2023/06/11 07:46:16;;;;;;;10.60;6.63;;;;;;;24.69;53.67;101335.47;5122965;29;20411;-73
2023/06/11 07:48:48;;;;;;;7.87;6.53;;;;;;;24.85;54.10;101342.50;5122440;29;20039;-74
2023/06/11 07:51:20;;;;;;;10.23;6.70;;;;;;;24.89;52.55;101344.00;5122537;29;20032;-72
2023/06/11 07:53:52;;;;;;;11.75;6.88;;;;;;;24.98;51.64;101346.06;5121218;29;20035;-72
2023/06/11 07:56:23;;;;;;;8.80;7.23;;;;;;;24.99;51.78;101341.59;5122487;29;20032;-72
2023/06/11 07:58:55;;;;;;;11.77;6.30;;;;;;;25.12;52.32;101347.84;5122165;29;20307;-72
2023/06/11 08:01:26;;;;;;;8.20;5.63;;;;;;;25.37;53.34;101340.91;5122367;29;20335;-72
2023/06/11 08:03:57;;;;;;;8.37;6.27;;;;;;;25.50;51.78;101344.47;5122340;29;20457;-72
2023/06/11 08:06:29;;;;;;;9.23;6.60;;;;;;;25.66;50.56;101344.28;5120702;29;20032;-72
2023/06/11 08:09:00;;;;;;;7.63;6.65;;;;;;;25.72;50.96;101338.53;5120689;29;20060;-72
2023/06/11 08:11:31;;;;;;;9.63;6.40;;;;;;;25.79;50.88;101344.31;5122581;29;20436;-72
2023/06/11 08:14:03;;;;;;;8.37;6.37;;;;;;;25.91;50.88;101351.50;5122593;29;20457;-72
2023/06/11 08:16:34;;;;;;;13.95;6.10;;;;;;;26.02;51.06;101353.47;5121879;29;20865;-72
2023/06/11 08:19:06;;;;;;;9.25;6.65;;;;;;;26.01;49.54;101354.41;5120867;29;20071;-72
2023/06/11 08:21:37;;;;;;;6.97;6.10;;;;;;;26.04;50.29;101343.53;5121221;29;20096;-72
2023/06/11 08:24:09;;;;;;;12.73;7.17;;;;;;;26.16;49.24;101344.47;5122139;29;20035;-70
2023/06/11 08:26:40;;;;;;;12.00;6.80;;;;;;;26.16;49.24;101348.03;5122262;29;20272;-70
2023/06/11 08:29:12;;;;;;;8.17;6.70;;;;;;;26.27;49.60;101343.72;5121649;29;20063;-72
2023/06/11 08:31:43;;;;;;;7.43;5.97;;;;;;;26.48;50.20;101334.19;5121949;29;20044;-70
2023/06/11 08:34:15;;;;;;;13.48;8.18;;;;;;;26.48;47.66;101336.84;5121640;29;20033;-71
2023/06/11 08:36:47;;;;;;;9.00;6.60;;;;;;;26.52;48.15;101335.69;5121826;29;20492;-70
2023/06/11 08:39:19;;;;;;;8.15;6.70;;;;;;;26.64;46.77;101333.97;5121730;29;20068;-70
2023/06/11 08:41:51;;;;;;;;;;;;;;;26.88;47.69;101331.31;5122677;29;20475;-73
2023/06/11 08:44:22;;;;;;;7.40;6.60;;;;;;;26.97;49.27;101328.94;5121689;29;19915;-71
2023/06/11 08:46:56;;;;;;;9.30;6.47;;;;;;;26.99;47.72;101333.22;5122254;29;20123;-71
2023/06/11 08:49:27;;;;;;;9.52;7.13;;;;;;;27.15;47.29;101326.75;5121343;29;20088;-71
2023/06/11 08:52:02;;;;;;;6.82;6.13;;;;;;;27.28;46.31;101322.19;5120645;29;20044;-71
2023/06/11 08:54:34;;;;;;;10.00;5.95;;;;;;;27.51;47.04;101324.97;5121366;29;20028;-71
2023/06/11 08:57:07;;;;;;;10.27;6.30;;;;;;;27.58;46.52;101327.06;5121066;29;20039;-72
2023/06/11 08:59:38;;;;;;;8.00;6.45;;;;;;;27.69;48.88;101326.22;5121721;29;20063;-71
2023/06/11 09:02:09;;;;;;;;;;;;;;;27.94;45.39;101333.25;5121812;29;20032;-71
2023/06/11 09:04:43;;;;;;;9.82;6.10;;;;;;;27.83;45.14;101319.81;5121319;29;19915;-71
2023/06/11 09:07:23;;;;;;;9.27;6.00;;;;;;;27.76;44.84;101315.91;5121184;29;20035;-72
2023/06/11 09:10:08;;;;;;;8.73;6.25;;;;;;;27.92;44.80;101318.22;5121362;29;20059;-71
2023/06/11 09:12:40;;;;;;;8.70;6.40;;;;;;;27.89;44.76;101319.34;5121210;29;20503;-71
2023/06/11 09:15:12;;;;;;;;;;;;;;;28.25;44.75;101316.59;5121546;29;20036;-71
2023/06/11 09:17:46;;;;;;;6.67;5.93;;;;;;;28.24;44.58;101315.75;5121801;29;20004;-71
2023/06/11 09:20:19;;;;;;;7.60;6.03;;;;;;;28.37;44.09;101313.78;5120964;29;20059;-71
2023/06/11 09:22:51;;;;;;;10.98;6.03;;;;;;;28.34;42.86;101315.88;5120791;29;20028;-71
2023/06/11 09:25:22;;;;;;;;;;;;;;;28.70;43.61;101320.09;5120195;29;20503;-72
2023/06/11 09:27:53;;;;;;;14.13;5.97;;;;;;;28.55;42.16;101316.81;5120878;29;19919;-71
2023/06/11 09:30:25;;;;;;;;;;;;;;;28.82;42.75;101320.09;5121139;29;20039;-71
2023/06/11 09:32:56;;;;;;;9.50;6.13;;;;;;;28.62;41.05;101303.78;5120249;29;20010;-71
2023/06/11 09:35:27;;;;;;;7.03;5.83;;;;;;;28.84;42.35;101313.63;5119912;29;20336;-71
2023/06/11 09:37:59;;;;;;;;;;;;;;;29.03;41.51;101322.81;5121150;29;20279;-71
2023/06/11 09:40:34;;;;;;;8.68;5.72;;;;;;;28.92;41.33;101321.06;5120556;29;19919;-71
2023/06/11 09:43:05;;;;;;;6.75;5.53;;;;;;;29.06;40.60;101315.41;5120338;29;20103;-71
2023/06/11 09:45:37;;;;;;;;;;;;;;;29.28;40.06;101311.78;5121171;29;20559;-71
2023/06/11 09:48:14;;;;;;;6.73;5.20;;;;;;;29.13;39.14;101322.94;5120623;29;19989;-71
2023/06/11 09:50:50;;;;;;;7.95;5.30;;;;;;;28.92;37.85;101321.06;5120775;29;20032;-71
2023/06/11 09:53:22;;;;;;;22.17;6.13;;;;;;;29.09;38.26;101322.31;5120955;29;20118;-71
2023/06/11 09:55:54;;;;;;;8.70;4.88;;;;;;;29.35;38.33;101322.00;5120096;29;20069;-71
2023/06/11 09:58:27;;;;;;;;;;;;;;;29.68;38.03;101322.84;5120987;29;20524;-70
2023/06/11 10:01:00;;;;;;;7.60;5.25;;;;;;;30.03;39.76;101321.63;5120624;29;20013;-71
2023/06/11 10:03:32;;;;;;;6.38;4.68;;;;;;;30.03;36.74;101327.88;5120877;29;20068;-71
2023/06/11 10:06:15;;;;;;;12.90;5.10;;;;;;;30.10;34.43;101328.19;5119176;29;20032;-71
2023/06/11 10:08:49;;;;;;;6.07;4.28;;;;;;;31.05;33.01;101322.41;5120203;29;20095;-71
2023/06/11 10:11:22;;;;;;;6.50;4.85;;;;;;;32.43;30.73;101320.38;5120089;29;20468;-72
2023/06/11 10:13:59;;;;;;;8.55;4.90;;;;;;;33.15;30.15;101323.16;5120532;29;20091;-71
2023/06/11 10:16:33;;;;;;;8.05;5.32;;;;;;;33.27;29.22;101326.53;5120290;29;20060;-71
2023/06/11 10:19:10;;;;;;;7.65;4.82;;;;;;;34.16;28.32;101328.16;5120288;29;20494;-71
2023/06/11 10:21:44;;;;;;;8.20;4.78;;;;;;;34.55;27.56;101321.41;5120596;29;20037;-72
2023/06/11 10:24:23;;;;;;;6.85;5.00;;;;;;;35.13;28.20;101330.53;5120804;29;20040;-72
2023/06/11 10:27:08;;;;;;;9.30;4.70;;;;;;;35.71;27.77;101321.41;5120352;29;20468;-71
2023/06/11 10:29:45;;;;;;;8.02;5.20;;;;;;;35.46;26.47;101325.16;5120302;29;20367;-72
2023/06/11 10:32:21;;;;;;;9.35;5.30;;;;;;;36.03;26.27;101311.50;5120511;29;20055;-71
2023/06/11 10:34:57;;;;;;;5.78;5.18;;;;;;;36.22;27.18;101310.25;5119525;29;20051;-72
2023/06/11 10:37:33;;;;;;;8.13;4.90;;;;;;;36.72;25.96;101320.88;5120218;29;20036;-71
2023/06/11 10:40:05;;;;;;;5.10;4.47;;;;;;;37.07;24.99;101308.63;5120356;29;20033;-72
2023/06/11 10:42:39;;;;;;;8.80;4.80;;;;;;;37.74;24.49;101302.44;5120562;29;20043;-72
2023/06/11 10:45:12;;;;;;;11.32;5.65;;;;;;;37.60;24.14;101308.69;5120211;29;20476;-72
2023/06/11 10:47:51;;;;;;;6.68;5.20;;;;;;;38.00;24.40;101314.75;5124164;29;20372;-72
2023/06/11 10:50:31;;;;;;;6.35;5.30;;;;;;;38.48;22.62;101314.31;5123898;29;20107;-72
2023/06/11 10:53:10;;;;;;;7.47;5.00;;;;;;;38.63;23.28;101308.88;5123967;29;20028;-72
2023/06/11 10:55:47;;;;;;;6.70;5.20;;;;;;;38.59;22.94;101319.25;5123073;29;20149;-73
2023/06/11 10:58:23;;;;;;;6.63;5.15;;;;;;;38.16;23.78;101304.69;5123430;29;20131;-72
2023/06/11 11:00:54;;;;;;;6.95;5.15;;;;;;;38.65;22.65;101309.53;5123647;29;20082;-72
2023/06/11 11:03:30;;;;;;;6.32;5.53;;;;;;;38.76;22.89;101322.63;5122864;29;20063;-72
2023/06/11 11:06:02;;;;;;;7.78;5.50;;;;;;;38.78;21.95;101312.38;5123525;29;20032;-72
2023/06/11 11:08:33;;;;;;;5.20;4.70;;;;;;;39.51;21.25;101316.81;5123270;29;20087;-72
2023/06/11 11:11:04;;;;;;;6.78;5.40;;;;;;;38.92;21.42;101313.38;5123096;29;20036;-72
2023/06/11 11:13:36;;;;;;;7.28;5.20;;;;;;;39.46;21.26;101308.41;5124053;29;20036;-72
2023/06/11 11:16:08;;;;;;;6.00;4.70;;;;;;;39.27;21.35;101305.31;5123409;29;20123;-72
2023/06/11 11:18:39;;;;;;;7.25;4.97;;;;;;;39.10;19.84;101304.75;5123599;29;20036;-72
2023/06/11 11:21:11;;;;;;;5.47;4.80;;;;;;;39.77;20.65;101301.69;5123295;29;20039;-72
2023/06/11 11:23:46;;;;;;;6.82;4.68;;;;;;;39.81;20.49;101306.56;5123015;29;20044;-72
2023/06/11 11:26:18;;;;;;;5.25;4.22;;;;;;;40.44;19.58;101311.94;5123054;29;20164;-72
2023/06/11 11:28:49;;;;;;;5.13;4.63;;;;;;;40.06;20.46;101300.63;5121911;29;20127;-72
2023/06/11 11:31:21;;;;;;;7.40;4.88;;;;;;;40.11;18.88;101301.72;5123122;29;20040;-72
2023/06/11 11:33:52;;;;;;;8.25;4.53;;;;;;;39.93;19.49;101295.91;5123217;29;20481;-71
2023/06/11 11:36:24;;;;;;;7.32;4.93;;;;;;;40.62;20.70;101288.66;5121473;29;20122;-72
2023/06/11 11:38:56;;;;;;;6.70;4.60;;;;;;;41.32;18.31;101302.88;5122938;29;20048;-72
2023/06/11 11:41:27;;;;;;;5.85;4.60;;;;;;;40.72;18.72;101294.59;5121435;29;20106;-72
2023/06/11 11:43:59;;;;;;;7.55;4.50;;;;;;;40.80;18.91;101299.00;5122899;29;20436;-72
2023/06/11 11:46:31;;;;;;;6.47;4.75;;;;;;;40.14;18.35;101297.75;5106207;29;20036;-71